createdAt,value
2022-07-25T00:00:43.543Z,25.61
2022-07-25T00:03:11.419Z,25.59
2022-07-25T00:05:38.501Z,25.56
2022-07-25T00:08:06.396Z,25.58
2022-07-25T00:10:33.505Z,25.49
2022-07-25T00:13:00.642Z,25.55
2022-07-25T00:15:27.750Z,25.55
2022-07-25T00:17:54.802Z,25.49
2022-07-25T00:20:21.950Z,25.52
2022-07-25T00:22:49.001Z,25.52
2022-07-25T00:25:16.158Z,25.48
2022-07-25T00:27:43.131Z,25.51
2022-07-25T00:30:10.896Z,25.50
2022-07-25T00:32:37.920Z,25.48
2022-07-25T00:35:05.341Z,25.48
2022-07-25T00:37:33.208Z,25.48
2022-07-25T00:40:00.384Z,25.49
2022-07-25T00:42:27.570Z,25.50
2022-07-25T00:44:54.882Z,25.50
2022-07-25T00:47:21.951Z,25.52
2022-07-25T00:49:49.278Z,25.54
2022-07-25T00:52:16.520Z,25.51
2022-07-25T00:54:43.558Z,25.50
2022-07-25T00:57:12.184Z,25.48
2022-07-25T00:59:39.360Z,25.49
2022-07-25T01:02:06.456Z,25.51
2022-07-25T01:04:33.742Z,25.49
2022-07-25T01:07:01.469Z,25.49
2022-07-25T01:09:28.956Z,25.43
2022-07-25T01:11:56.061Z,25.45
2022-07-25T01:14:23.248Z,25.42
2022-07-25T01:16:50.379Z,25.27
2022-07-25T01:19:17.784Z,25.24
2022-07-25T01:21:44.861Z,25.18
2022-07-25T01:24:12.502Z,25.10
2022-07-25T01:26:39.650Z,25.07
2022-07-25T01:29:06.940Z,25.05
2022-07-25T01:31:34.121Z,24.99
2022-07-25T01:34:01.359Z,24.98
2022-07-25T01:36:28.541Z,24.98
2022-07-25T01:38:55.609Z,24.96
2022-07-25T01:41:22.928Z,24.97
2022-07-25T01:43:50.257Z,24.93
2022-07-25T01:46:17.606Z,24.93
2022-07-25T01:48:44.767Z,24.84
2022-07-25T01:51:11.982Z,24.82
2022-07-25T01:53:39.079Z,24.80
2022-07-25T01:56:06.744Z,24.78
2022-07-25T01:58:36.150Z,24.72
2022-07-25T02:01:03.474Z,24.71
2022-07-25T02:03:30.615Z,24.65
2022-07-25T02:06:06.742Z,24.68
2022-07-25T02:08:34.989Z,24.65
2022-07-25T02:11:02.161Z,24.65
2022-07-25T02:13:29.231Z,24.60
2022-07-25T02:15:56.326Z,24.53
2022-07-25T02:18:23.342Z,24.50
2022-07-25T02:20:50.521Z,24.44
2022-07-25T02:23:17.670Z,24.39
2022-07-25T02:25:44.689Z,24.34
2022-07-25T02:28:11.734Z,24.29
2022-07-25T02:30:39.118Z,24.27
2022-07-25T02:33:06.290Z,24.15
2022-07-25T02:35:33.371Z,23.91
2022-07-25T02:38:00.490Z,23.97
2022-07-25T02:40:27.622Z,23.93
2022-07-25T02:42:54.800Z,23.85
2022-07-25T02:45:21.898Z,23.77
2022-07-25T02:47:49.142Z,23.76
2022-07-25T02:50:16.438Z,23.77
2022-07-25T02:52:44.221Z,23.70
2022-07-25T02:55:12.009Z,23.64
2022-07-25T02:57:39.152Z,23.60
2022-07-25T03:00:07.555Z,23.61
2022-07-25T03:02:34.798Z,23.60
2022-07-25T03:05:02.258Z,23.59
2022-07-25T03:07:29.312Z,23.56
2022-07-25T03:09:56.290Z,23.58
2022-07-25T03:12:23.338Z,23.55
2022-07-25T03:14:50.698Z,23.53
2022-07-25T03:17:17.892Z,23.53
2022-07-25T03:19:45.006Z,23.50
2022-07-25T03:22:12.091Z,23.50
2022-07-25T03:24:39.356Z,23.51
2022-07-25T03:27:06.421Z,23.50
2022-07-25T03:29:33.869Z,23.48
2022-07-25T03:32:00.974Z,23.42
2022-07-25T03:34:28.327Z,23.45
2022-07-25T03:36:55.430Z,23.38
2022-07-25T03:39:22.595Z,23.36
2022-07-25T03:41:49.631Z,23.37
2022-07-25T03:44:16.750Z,23.33
2022-07-25T03:46:43.756Z,23.30
2022-07-25T03:49:10.916Z,23.29
2022-07-25T03:51:38.397Z,23.27
2022-07-25T03:54:06.877Z,23.23
2022-07-25T03:56:43.475Z,23.24
2022-07-25T03:59:14.049Z,23.21
2022-07-25T04:01:42.291Z,23.22
2022-07-25T04:04:10.343Z,23.20
2022-07-25T04:06:38.792Z,23.21
2022-07-25T04:09:06.678Z,23.22
2022-07-25T04:11:35.964Z,23.20
2022-07-25T04:14:03.316Z,23.20
2022-07-25T04:16:31.101Z,23.23
2022-07-25T04:18:58.299Z,23.22
2022-07-25T04:21:27.660Z,23.23
2022-07-25T04:23:54.777Z,23.25
2022-07-25T04:26:21.881Z,23.29
2022-07-25T04:28:49.192Z,23.34
2022-07-25T04:31:17.045Z,23.38
2022-07-25T04:33:44.862Z,23.43
2022-07-25T04:36:11.823Z,23.54
2022-07-25T04:38:39.020Z,23.60
2022-07-25T04:41:06.260Z,23.67
2022-07-25T04:43:33.379Z,23.82
2022-07-25T04:46:01.491Z,23.93
2022-07-25T04:48:28.877Z,24.04
2022-07-25T04:50:56.040Z,24.09
2022-07-25T04:53:23.053Z,24.14
2022-07-25T04:55:50.196Z,24.18
2022-07-25T04:58:17.521Z,24.24
2022-07-25T05:00:44.736Z,24.29
2022-07-25T05:03:11.947Z,24.34
2022-07-25T05:05:39.029Z,24.42
2022-07-25T05:08:06.178Z,24.48
2022-07-25T05:10:33.410Z,24.51
2022-07-25T05:13:00.442Z,24.56
2022-07-25T05:15:27.672Z,24.70
2022-07-25T05:17:54.841Z,24.73
2022-07-25T05:20:22.001Z,24.76
2022-07-25T05:22:49.198Z,24.91
2022-07-25T05:25:16.366Z,24.91
2022-07-25T05:27:43.539Z,25.01
2022-07-25T05:30:12.810Z,25.10
2022-07-25T05:32:40.796Z,25.11
2022-07-25T05:35:08.483Z,25.19
2022-07-25T05:37:37.669Z,25.36
2022-07-25T05:40:06.451Z,25.39
2022-07-25T05:42:33.882Z,25.43
2022-07-25T05:45:01.428Z,25.57
2022-07-25T05:47:28.573Z,25.64
2022-07-25T05:49:55.780Z,25.75
2022-07-25T05:52:23.138Z,25.84
2022-07-25T05:54:50.668Z,25.95
2022-07-25T05:57:17.951Z,26.02
2022-07-25T05:59:45.080Z,26.16
2022-07-25T06:02:12.329Z,26.15
2022-07-25T06:04:39.438Z,26.19
2022-07-25T06:07:06.519Z,26.26
2022-07-25T06:09:34.820Z,26.32
2022-07-25T06:12:01.885Z,26.48
2022-07-25T06:14:29.946Z,26.68
2022-07-25T06:16:57.622Z,26.76
2022-07-25T06:19:24.710Z,26.87
2022-07-25T06:21:51.672Z,26.95
2022-07-25T06:24:18.718Z,26.99
2022-07-25T06:26:45.869Z,27.06
2022-07-25T06:29:12.979Z,27.11
2022-07-25T06:31:40.139Z,27.18
2022-07-25T06:34:07.717Z,27.23
2022-07-25T06:36:35.373Z,27.21
2022-07-25T06:39:02.812Z,27.17
2022-07-25T06:41:30.098Z,27.19
2022-07-25T06:43:57.079Z,27.21
2022-07-25T06:46:24.296Z,27.21
2022-07-25T06:48:51.481Z,27.18
2022-07-25T06:51:18.599Z,27.18
2022-07-25T06:53:45.648Z,27.18
2022-07-25T06:56:17.335Z,27.24
2022-07-25T06:58:45.387Z,27.17
2022-07-25T07:01:12.511Z,27.29
2022-07-25T07:03:40.539Z,27.35
2022-07-25T07:06:12.330Z,27.45
2022-07-25T07:08:39.388Z,27.59
2022-07-25T07:11:07.617Z,27.76
2022-07-25T07:13:35.162Z,27.80
2022-07-25T07:16:02.869Z,27.89
2022-07-25T07:18:29.980Z,27.91
2022-07-25T07:20:57.281Z,27.97
2022-07-25T07:23:24.759Z,28.02
2022-07-25T07:25:52.138Z,28.03
2022-07-25T07:28:19.318Z,28.08
2022-07-25T07:33:34.159Z,28.13
2022-07-25T07:36:04.640Z,28.14
2022-07-25T07:38:31.709Z,28.19
2022-07-25T07:40:59.180Z,28.16
2022-07-25T07:43:30.055Z,28.28
2022-07-25T07:46:01.469Z,28.35
2022-07-25T07:48:32.443Z,28.36
2022-07-25T07:51:01.297Z,28.40
2022-07-25T07:53:47.278Z,28.34
2022-07-25T07:56:15.309Z,28.49
2022-07-25T07:58:43.040Z,28.63
2022-07-25T08:01:10.094Z,28.72
2022-07-25T08:03:37.621Z,28.82
2022-07-25T08:06:05.147Z,28.87
2022-07-25T08:08:32.830Z,28.86
2022-07-25T08:11:00.082Z,28.91
2022-07-25T08:13:30.585Z,29.10
2022-07-25T08:15:59.834Z,29.13
2022-07-25T08:18:30.181Z,29.16
2022-07-25T08:20:57.534Z,29.27
2022-07-25T08:23:25.922Z,29.43
2022-07-25T08:25:53.065Z,29.52
2022-07-25T08:28:20.622Z,29.53
2022-07-25T08:30:47.814Z,29.63
2022-07-25T08:33:18.213Z,29.74
2022-07-25T08:35:55.038Z,29.80
2022-07-25T08:38:24.099Z,29.84
2022-07-25T08:40:51.638Z,29.88
2022-07-25T08:43:19.853Z,29.96
2022-07-25T08:45:48.426Z,30.03
2022-07-25T08:48:19.241Z,30.02
2022-07-25T08:50:47.771Z,29.89
2022-07-25T08:53:32.777Z,29.92
2022-07-25T08:56:00.507Z,29.96
2022-07-25T08:58:27.620Z,30.19
2022-07-25T09:00:54.650Z,30.33
2022-07-25T09:03:21.669Z,30.39
2022-07-25T09:05:48.822Z,30.44
2022-07-25T09:08:20.271Z,30.68
2022-07-25T09:10:49.685Z,30.67
2022-07-25T09:13:17.890Z,30.85
2022-07-25T09:15:53.995Z,30.99
2022-07-25T09:18:25.618Z,31.15
2022-07-25T09:20:55.033Z,31.27
2022-07-25T09:23:34.180Z,31.32
2022-07-25T09:26:14.920Z,31.32
2022-07-25T09:28:44.878Z,31.31
2022-07-25T09:31:13.778Z,31.65
2022-07-25T09:33:57.240Z,31.70
2022-07-25T09:36:24.652Z,31.83
2022-07-25T09:39:03.156Z,32.16
2022-07-25T09:41:41.197Z,32.41
2022-07-25T09:44:19.091Z,32.55
2022-07-25T09:46:46.344Z,32.72
2022-07-25T09:49:14.809Z,32.84
2022-07-25T09:51:42.807Z,33.02
2022-07-25T09:54:10.385Z,33.10
2022-07-25T09:56:37.676Z,33.06
2022-07-25T09:59:06.052Z,33.20
2022-07-25T10:01:37.929Z,33.30
2022-07-25T10:04:37.915Z,33.52
2022-07-25T10:07:10.761Z,33.65
2022-07-25T10:09:46.409Z,33.88
2022-07-25T10:12:15.332Z,34.11
2022-07-25T10:14:42.910Z,33.89
2022-07-25T10:17:21.319Z,34.21
2022-07-25T10:19:52.933Z,34.18
2022-07-25T10:22:46.322Z,34.38
2022-07-25T10:25:18.097Z,34.37
2022-07-25T10:27:50.796Z,34.42
2022-07-25T10:30:26.438Z,34.40
2022-07-25T10:32:57.876Z,34.31
2022-07-25T10:35:26.798Z,34.40
2022-07-25T10:37:56.272Z,34.41
2022-07-25T10:40:45.379Z,34.32
2022-07-25T10:43:18.531Z,34.63
2022-07-25T10:45:52.738Z,34.60
2022-07-25T10:48:22.646Z,34.72
2022-07-25T10:50:56.622Z,34.81
2022-07-25T10:53:39.105Z,34.93
2022-07-25T10:56:14.123Z,34.86
2022-07-25T10:58:47.500Z,34.98
2022-07-25T11:13:10.998Z,34.74
2022-07-25T11:15:38.486Z,34.76
2022-07-25T11:18:05.520Z,34.76
2022-07-25T11:20:32.631Z,34.75
2022-07-25T11:22:59.676Z,34.78
2022-07-25T11:25:26.749Z,34.84
2022-07-25T11:27:58.376Z,34.94
2022-07-25T11:30:27.888Z,34.99
2022-07-25T11:32:58.400Z,34.86
2022-07-25T11:35:28.460Z,34.64
2022-07-25T11:37:56.891Z,35.03
2022-07-25T11:40:24.578Z,35.26
2022-07-25T11:42:59.970Z,35.17
2022-07-25T11:45:28.443Z,35.43
2022-07-25T11:48:08.277Z,35.75
2022-07-25T11:50:40.443Z,35.58
2022-07-25T11:53:11.801Z,35.57
2022-07-25T11:55:43.463Z,35.79
2022-07-25T11:58:13.281Z,36.20
2022-07-25T12:00:41.710Z,36.38
2022-07-25T12:03:19.193Z,36.02
2022-07-25T12:05:47.329Z,36.15
2022-07-25T12:08:15.640Z,36.55
2022-07-25T12:10:44.189Z,36.89
2022-07-25T12:13:22.771Z,37.21
2022-07-25T12:15:49.968Z,37.38
2022-07-25T12:18:16.996Z,37.45
2022-07-25T12:20:44.645Z,37.73
2022-07-25T12:23:13.850Z,37.95
2022-07-25T12:25:43.651Z,38.00
2022-07-25T12:28:11.841Z,37.92
2022-07-25T12:30:40.627Z,37.82
2022-07-25T12:33:08.607Z,37.98
2022-07-25T12:35:37.723Z,38.30
2022-07-25T12:38:05.608Z,38.37
2022-07-25T12:40:34.038Z,38.41
2022-07-25T12:43:01.451Z,38.25
2022-07-25T12:45:28.465Z,38.51
2022-07-25T12:47:55.599Z,38.63
2022-07-25T12:50:26.054Z,38.50
2022-07-25T12:52:53.557Z,38.79
2022-07-25T12:55:21.281Z,38.85
2022-07-25T12:57:49.535Z,38.99
2022-07-25T13:00:19.661Z,38.91
2022-07-25T13:02:47.830Z,38.85
2022-07-25T13:05:15.227Z,39.09
2022-07-25T13:07:42.098Z,39.03
2022-07-25T13:10:09.938Z,39.21
2022-07-25T13:12:37.193Z,39.08
2022-07-25T13:15:04.620Z,38.93
2022-07-25T13:17:32.372Z,39.22
2022-07-25T13:19:59.659Z,39.57
2022-07-25T13:22:26.878Z,39.73
2022-07-25T13:24:54.240Z,39.57
2022-07-25T13:27:22.679Z,39.70
2022-07-25T13:29:56.337Z,39.72
2022-07-25T13:32:24.109Z,39.78
2022-07-25T13:34:50.971Z,39.80
2022-07-25T13:37:18.084Z,39.74
2022-07-25T13:39:45.177Z,39.73
2022-07-25T13:42:12.363Z,39.64
2022-07-25T13:44:39.449Z,39.54
2022-07-25T13:47:06.629Z,39.42
2022-07-25T13:49:33.626Z,39.34
2022-07-25T13:52:00.732Z,39.29
2022-07-25T13:54:27.756Z,39.36
2022-07-25T13:56:54.905Z,39.27
2022-07-25T13:59:22.218Z,39.07
2022-07-25T14:01:50.594Z,39.13
2022-07-25T14:04:18.174Z,39.38
2022-07-25T14:06:45.260Z,39.45
2022-07-25T14:09:12.449Z,39.57
2022-07-25T14:11:39.488Z,39.67
2022-07-25T14:14:06.799Z,39.69
2022-07-25T14:16:34.605Z,39.71
2022-07-25T14:19:02.516Z,39.54
2022-07-25T14:21:30.554Z,39.70
2022-07-25T14:23:57.642Z,39.73
2022-07-25T14:26:24.768Z,39.70
2022-07-25T14:28:52.083Z,39.67
2022-07-25T14:31:19.072Z,39.71
2022-07-25T14:33:46.024Z,39.73
2022-07-25T14:36:13.482Z,39.67
2022-07-25T14:38:40.538Z,39.51
2022-07-25T14:41:12.363Z,39.54
2022-07-25T14:43:40.770Z,39.40
2022-07-25T14:46:09.237Z,39.28
2022-07-25T14:48:37.984Z,39.05
2022-07-25T14:51:06.320Z,38.96
2022-07-25T14:53:35.153Z,39.25
2022-07-25T14:56:04.430Z,39.12
2022-07-25T14:58:31.670Z,39.26
2022-07-25T15:00:58.699Z,39.16
2022-07-25T15:03:25.823Z,39.44
2022-07-25T15:05:53.379Z,39.44
2022-07-25T15:08:20.489Z,39.39
2022-07-25T15:10:47.573Z,39.19
2022-07-25T15:13:30.632Z,38.97
2022-07-25T15:15:59.194Z,38.70
2022-07-25T15:18:26.337Z,38.65
2022-07-25T15:20:53.470Z,38.75
2022-07-25T15:23:21.369Z,38.76
2022-07-25T15:26:04.770Z,38.76
2022-07-25T15:28:37.514Z,38.43
2022-07-25T15:31:06.435Z,38.70
2022-07-25T15:33:33.813Z,38.69
2022-07-25T15:36:01.089Z,38.67
2022-07-25T15:38:29.225Z,38.38
2022-07-25T15:40:56.533Z,38.59
2022-07-25T15:43:24.162Z,38.46
2022-07-25T15:45:51.560Z,38.64
2022-07-25T15:48:18.697Z,38.57
2022-07-25T15:50:48.423Z,38.45
2022-07-25T15:53:15.889Z,38.45
2022-07-25T15:55:42.795Z,38.61
2022-07-25T15:58:11.089Z,38.54
2022-07-25T16:00:40.019Z,38.22
2022-07-25T16:03:07.623Z,38.34
2022-07-25T16:05:34.950Z,38.33
2022-07-25T16:08:02.395Z,38.10
2022-07-25T16:10:30.311Z,38.14
2022-07-25T16:12:57.330Z,38.10
2022-07-25T16:15:25.378Z,38.01
2022-07-25T16:18:01.670Z,37.84
2022-07-25T16:20:31.662Z,37.79
2022-07-25T16:22:59.761Z,37.71
2022-07-25T16:25:28.232Z,37.61
2022-07-25T16:27:55.787Z,37.41
2022-07-25T16:30:22.932Z,37.27
2022-07-25T16:32:49.918Z,37.12
2022-07-25T16:35:17.095Z,36.96
2022-07-25T16:37:44.344Z,36.86
2022-07-25T16:40:12.076Z,36.71
2022-07-25T16:42:39.258Z,36.63
2022-07-25T16:45:07.794Z,36.48
2022-07-25T16:47:35.328Z,36.33
2022-07-25T16:50:02.461Z,36.10
2022-07-25T16:52:29.519Z,36.02
2022-07-25T16:54:56.589Z,35.97
2022-07-25T16:57:24.966Z,35.92
2022-07-25T16:59:53.716Z,35.80
2022-07-25T17:02:27.574Z,35.70
2022-07-25T17:04:56.662Z,35.64
2022-07-25T17:07:23.890Z,35.51
2022-07-25T17:09:50.934Z,35.41
2022-07-25T17:12:18.714Z,35.31
2022-07-25T17:14:46.113Z,35.15
2022-07-25T17:17:13.468Z,35.09
2022-07-25T17:19:40.847Z,34.93
2022-07-25T17:22:09.122Z,34.81
2022-07-25T17:24:36.552Z,34.62
2022-07-25T17:27:04.430Z,34.51
2022-07-25T17:29:31.809Z,34.41
2022-07-25T17:31:58.880Z,34.24
2022-07-25T17:34:27.038Z,34.09
2022-07-25T17:36:54.693Z,33.90
2022-07-25T17:39:21.899Z,33.81
2022-07-25T17:41:49.405Z,33.70
2022-07-25T17:44:16.847Z,33.59
2022-07-25T17:46:44.587Z,33.50
2022-07-25T17:49:11.760Z,33.41
2022-07-25T17:51:38.913Z,33.31
2022-07-25T17:54:06.299Z,33.23
2022-07-25T17:56:33.880Z,33.11
2022-07-25T17:59:00.945Z,33.02
2022-07-25T18:01:28.239Z,32.96
2022-07-25T18:03:55.339Z,32.87
2022-07-25T18:06:27.630Z,32.75
2022-07-25T18:08:56.932Z,32.62
2022-07-25T18:11:24.180Z,32.55
2022-07-25T18:13:51.240Z,32.42
2022-07-25T18:16:18.309Z,32.35
2022-07-25T18:18:45.660Z,32.24
2022-07-25T18:21:13.017Z,32.13
2022-07-25T18:23:40.020Z,32.08
2022-07-25T18:26:07.200Z,32.01
2022-07-25T18:28:34.240Z,31.98
2022-07-25T18:31:01.500Z,31.89
2022-07-25T18:33:28.716Z,31.74
2022-07-25T18:35:56.033Z,31.73
2022-07-25T18:38:23.078Z,31.66
2022-07-25T18:41:06.533Z,31.57
2022-07-25T18:43:37.381Z,31.52
2022-07-25T18:46:04.514Z,31.45
2022-07-25T18:48:33.660Z,31.39
2022-07-25T18:51:00.730Z,31.31
2022-07-25T18:53:27.781Z,31.26
2022-07-25T18:55:54.811Z,31.12
2022-07-25T18:58:22.131Z,31.04
2022-07-25T19:00:49.141Z,30.98
2022-07-25T19:03:16.229Z,30.98
2022-07-25T19:05:43.978Z,30.89
2022-07-25T19:08:11.248Z,30.84
2022-07-25T19:10:38.351Z,30.77
2022-07-25T19:13:05.462Z,30.80
2022-07-25T19:15:32.567Z,30.75
2022-07-25T19:17:59.801Z,30.63
2022-07-25T19:20:27.578Z,30.55
2022-07-25T19:22:54.610Z,30.45
2022-07-25T19:25:21.722Z,30.37
2022-07-25T19:27:50.840Z,30.36
2022-07-25T19:30:20.956Z,30.32
2022-07-25T19:32:48.259Z,30.35
2022-07-25T19:35:15.460Z,30.31
2022-07-25T19:37:42.567Z,30.32
2022-07-25T19:40:10.239Z,30.31
2022-07-25T19:42:37.444Z,30.29
2022-07-25T19:45:05.049Z,30.25
2022-07-25T19:47:32.278Z,30.23
2022-07-25T19:49:59.469Z,30.25
2022-07-25T19:52:26.569Z,30.18
2022-07-25T19:54:54.750Z,30.14
2022-07-25T19:57:21.790Z,30.20
2022-07-25T19:59:48.939Z,30.15
2022-07-25T20:02:16.064Z,30.10
2022-07-25T20:04:43.081Z,30.10
2022-07-25T20:07:10.107Z,30.08
2022-07-25T20:09:37.191Z,30.06
2022-07-25T20:12:04.507Z,30.04
2022-07-25T20:14:31.639Z,30.03
2022-07-25T20:16:58.766Z,30.01
2022-07-25T20:19:25.881Z,29.93
2022-07-25T20:21:53.030Z,30.01
2022-07-25T20:24:21.642Z,29.94
2022-07-25T20:26:49.581Z,29.94
2022-07-25T20:29:16.671Z,29.97
2022-07-25T20:31:45.210Z,29.97
2022-07-25T20:34:14.315Z,29.92
2022-07-25T20:36:42.193Z,29.96
2022-07-25T20:39:10.411Z,29.93
2022-07-25T20:41:39.878Z,29.95
2022-07-25T20:44:07.077Z,29.87
2022-07-25T20:46:36.185Z,29.74
2022-07-25T20:49:06.024Z,29.76
2022-07-25T20:51:33.521Z,29.74
2022-07-25T20:54:00.520Z,29.63
2022-07-25T20:56:27.509Z,29.63
2022-07-25T20:58:54.570Z,29.51
2022-07-25T21:01:21.808Z,29.49
2022-07-25T21:03:48.908Z,29.51
2022-07-25T21:06:16.000Z,29.49
2022-07-25T21:08:43.148Z,29.46
2022-07-25T21:11:10.268Z,29.44
2022-07-25T21:13:37.452Z,29.40
2022-07-25T21:16:04.671Z,29.37
2022-07-25T21:18:31.668Z,29.31
2022-07-25T21:20:59.629Z,29.32
2022-07-25T21:23:26.694Z,29.29
2022-07-25T21:25:54.657Z,29.27
2022-07-25T21:28:22.218Z,29.27
2022-07-25T21:30:49.329Z,29.23
2022-07-25T21:33:16.365Z,29.17
2022-07-25T21:35:49.234Z,29.15
2022-07-25T21:38:27.355Z,29.00
2022-07-25T21:40:58.289Z,29.05
2022-07-25T21:43:25.470Z,28.99
2022-07-25T21:45:52.901Z,28.96
2022-07-25T21:48:40.027Z,28.95
2022-07-25T21:51:18.655Z,28.96
2022-07-25T21:53:51.421Z,28.91
2022-07-25T21:56:18.781Z,28.92
2022-07-25T21:58:45.961Z,28.90
2022-07-25T22:01:13.119Z,28.96
2022-07-25T22:03:40.696Z,28.97
2022-07-25T22:06:07.931Z,28.99
2022-07-25T22:08:35.001Z,29.00
2022-07-25T22:11:16.272Z,28.91
2022-07-25T22:13:49.558Z,29.05
2022-07-25T22:16:17.143Z,29.08
2022-07-25T22:18:44.150Z,29.02
2022-07-25T22:21:11.510Z,29.09
2022-07-25T22:23:43.078Z,29.07
2022-07-25T22:26:10.108Z,29.06
2022-07-25T22:28:37.282Z,29.02
2022-07-25T22:31:04.792Z,29.04
2022-07-25T22:33:34.661Z,29.00
2022-07-25T22:36:02.030Z,29.00
2022-07-25T22:38:29.300Z,29.00
2022-07-25T22:40:56.982Z,28.95
2022-07-25T22:43:24.100Z,28.87
2022-07-25T22:46:12.005Z,28.84
2022-07-25T22:48:42.599Z,28.76
2022-07-25T22:51:09.761Z,28.72
2022-07-25T22:53:36.761Z,28.66
2022-07-25T22:56:03.916Z,28.51
2022-07-25T22:58:31.008Z,28.54
2022-07-25T23:00:58.077Z,28.50
2022-07-25T23:03:25.191Z,28.49
2022-07-25T23:05:58.542Z,28.51
2022-07-25T23:08:25.520Z,28.49
2022-07-25T23:10:52.560Z,28.47
2022-07-25T23:13:20.020Z,28.44
2022-07-25T23:15:50.153Z,28.45
2022-07-25T23:18:19.030Z,28.45
2022-07-25T23:20:46.550Z,28.36
2022-07-25T23:23:13.975Z,28.31
2022-07-25T23:25:41.039Z,28.26
2022-07-25T23:28:08.218Z,28.16
2022-07-25T23:30:40.226Z,28.11
2022-07-25T23:33:08.374Z,28.10
2022-07-25T23:35:36.000Z,28.12
2022-07-25T23:38:03.889Z,28.05
2022-07-25T23:40:30.931Z,28.11
2022-07-25T23:42:57.989Z,28.12
2022-07-25T23:45:28.005Z,28.14
2022-07-25T23:47:56.614Z,28.14
2022-07-25T23:50:24.334Z,28.15
2022-07-25T23:52:51.721Z,28.14
2022-07-25T23:55:18.893Z,28.15
2022-07-25T23:57:46.703Z,28.15
